SKW3634 KDTW-KCMH
Flight info
| Callsign | SKW3634 |
|---|---|
| Flight time | 0h 35m |
| Altitude | 19000 |
| Route | CLVIN3 CLVIN ESSIE DUBLN1 |
| Aircraft | CRJ9/M-SDFGIRWY/S |
Departure
| Time | 2026-05-06 02:30 |
|---|---|
| Airport | Detroit Metropolitan Wayne County Airport (KDTW) |
Arrival
| Time | 2026-05-06 03:05 |
|---|---|
| Airport | John Glenn Columbus International Airport (KCMH) |
| Time | Latitude | Longitude | Altitude | Speed | Heading |
|---|---|---|---|---|---|
| 2026-05-06 02:08 | 42.21159 | -83.36087 | 650 ft | 0 kts | 121° |
| 2026-05-06 02:17 | 42.21163 | -83.36099 | 647 ft | 0 kts | 101° |
| 2026-05-06 02:19 | 42.21168 | -83.36123 | 647 ft | 4 kts | 105° |
| 2026-05-06 02:19 | 42.21166 | -83.36153 | 649 ft | 4 kts | 57° |
| 2026-05-06 02:20 | 42.21143 | -83.36176 | 648 ft | 1 kts | 27° |
| 2026-05-06 02:22 | 42.21160 | -83.36164 | 648 ft | 5 kts | 27° |
| 2026-05-06 02:22 | 42.21184 | -83.36147 | 648 ft | 7 kts | 28° |
| 2026-05-06 02:23 | 42.21242 | -83.36105 | 647 ft | 11 kts | 28° |
| 2026-05-06 02:23 | 42.21322 | -83.36046 | 647 ft | 14 kts | 28° |
| 2026-05-06 02:23 | 42.21412 | -83.35979 | 648 ft | 16 kts | 29° |
| 2026-05-06 02:23 | 42.21513 | -83.35906 | 647 ft | 17 kts | 26° |
| 2026-05-06 02:24 | 42.21623 | -83.35830 | 649 ft | 18 kts | 28° |
| 2026-05-06 02:24 | 42.21731 | -83.35753 | 646 ft | 17 kts | 27° |
| 2026-05-06 02:24 | 42.21818 | -83.35627 | 646 ft | 13 kts | 85° |
| 2026-05-06 02:24 | 42.21820 | -83.35550 | 648 ft | 12 kts | 88° |
| 2026-05-06 02:25 | 42.21822 | -83.35424 | 647 ft | 15 kts | 89° |
| 2026-05-06 02:25 | 42.21825 | -83.35275 | 647 ft | 17 kts | 88° |
| 2026-05-06 02:25 | 42.21827 | -83.35106 | 650 ft | 19 kts | 88° |
| 2026-05-06 02:25 | 42.21831 | -83.34921 | 648 ft | 21 kts | 89° |
| 2026-05-06 02:26 | 42.21834 | -83.34721 | 648 ft | 21 kts | 89° |
| 2026-05-06 02:26 | 42.21843 | -83.34534 | 649 ft | 19 kts | 66° |
| 2026-05-06 02:26 | 42.21941 | -83.34438 | 650 ft | 17 kts | 28° |
| 2026-05-06 02:26 | 42.22042 | -83.34363 | 648 ft | 17 kts | 28° |
| 2026-05-06 02:27 | 42.22156 | -83.34280 | 647 ft | 20 kts | 28° |
| 2026-05-06 02:27 | 42.22282 | -83.34186 | 648 ft | 22 kts | 28° |
| 2026-05-06 02:27 | 42.22416 | -83.34088 | 648 ft | 21 kts | 28° |
| 2026-05-06 02:27 | 42.22552 | -83.33988 | 650 ft | 23 kts | 28° |
| 2026-05-06 02:28 | 42.22689 | -83.33887 | 648 ft | 22 kts | 28° |
| 2026-05-06 02:28 | 42.22815 | -83.33794 | 648 ft | 15 kts | 28° |
| 2026-05-06 02:28 | 42.22845 | -83.33699 | 648 ft | 11 kts | 110° |
| 2026-05-06 02:28 | 42.22816 | -83.33636 | 648 ft | 4 kts | 154° |
| 2026-05-06 02:29 | 42.22794 | -83.33642 | 648 ft | 4 kts | 211° |
| 2026-05-06 02:29 | 42.22685 | -83.33725 | 652 ft | 43 kts | 208° |
| 2026-05-06 02:29 | 42.22232 | -83.34058 | 650 ft | 104 kts | 208° |
| 2026-05-06 02:29 | 42.21446 | -83.34630 | 648 ft | 151 kts | 208° |
| 2026-05-06 02:30 | 42.20480 | -83.35341 | 1057 ft | 161 kts | 209° |
| 2026-05-06 02:30 | 42.19491 | -83.36040 | 1724 ft | 160 kts | 208° |
| 2026-05-06 02:30 | 42.18425 | -83.36595 | 2207 ft | 176 kts | 196° |
| 2026-05-06 02:30 | 42.17096 | -83.36977 | 2414 ft | 210 kts | 192° |
| 2026-05-06 02:31 | 42.15594 | -83.37402 | 3028 ft | 229 kts | 195° |
| 2026-05-06 02:31 | 42.13989 | -83.37898 | 3690 ft | 245 kts | 195° |
| 2026-05-06 02:31 | 42.12275 | -83.38426 | 4358 ft | 260 kts | 195° |
| 2026-05-06 02:31 | 42.10489 | -83.38984 | 5224 ft | 264 kts | 198° |
| 2026-05-06 02:32 | 42.08728 | -83.39685 | 6202 ft | 265 kts | 201° |
| 2026-05-06 02:32 | 42.06974 | -83.40461 | 7180 ft | 264 kts | 207° |
| 2026-05-06 02:32 | 42.05466 | -83.41797 | 8098 ft | 261 kts | 221° |
| 2026-05-06 02:32 | 42.03777 | -83.42764 | 8984 ft | 271 kts | 195° |
| 2026-05-06 02:33 | 42.01894 | -83.43119 | 9919 ft | 275 kts | 191° |
| 2026-05-06 02:33 | 42.00623 | -83.43238 | 10484 ft | 278 kts | 188° |
| 2026-05-06 02:34 | 41.93580 | -83.44394 | 11758 ft | 347 kts | 182° |
| 2026-05-06 02:34 | 41.91113 | -83.44106 | 12189 ft | 364 kts | 178° |
| 2026-05-06 02:34 | 41.88562 | -83.43657 | 12783 ft | 373 kts | 177° |
| 2026-05-06 02:34 | 41.85987 | -83.43193 | 13555 ft | 374 kts | 178° |
| 2026-05-06 02:35 | 41.83398 | -83.42798 | 14297 ft | 377 kts | 179° |
| 2026-05-06 02:35 | 41.80777 | -83.42459 | 15034 ft | 380 kts | 180° |
| 2026-05-06 02:35 | 41.78140 | -83.42109 | 15729 ft | 383 kts | 180° |
| 2026-05-06 02:35 | 41.75486 | -83.41741 | 16398 ft | 386 kts | 180° |
| 2026-05-06 02:36 | 41.72843 | -83.41385 | 17026 ft | 388 kts | 181° |
| 2026-05-06 02:36 | 41.70190 | -83.41543 | 17648 ft | 377 kts | 197° |
| 2026-05-06 02:36 | 41.67658 | -83.42455 | 18229 ft | 377 kts | 203° |
| 2026-05-06 02:36 | 41.65156 | -83.43603 | 18610 ft | 384 kts | 205° |
| 2026-05-06 02:37 | 41.62615 | -83.44834 | 18776 ft | 391 kts | 205° |
| 2026-05-06 02:37 | 41.60036 | -83.46049 | 18847 ft | 393 kts | 204° |
| 2026-05-06 02:37 | 41.57487 | -83.47235 | 18873 ft | 392 kts | 204° |
| 2026-05-06 02:37 | 41.54919 | -83.48413 | 18885 ft | 391 kts | 204° |
| 2026-05-06 02:38 | 41.52349 | -83.49567 | 18889 ft | 389 kts | 204° |
| 2026-05-06 02:38 | 41.49792 | -83.50710 | 18892 ft | 387 kts | 204° |
| 2026-05-06 02:38 | 41.47247 | -83.51853 | 18893 ft | 385 kts | 204° |
| 2026-05-06 02:38 | 41.44715 | -83.52991 | 18894 ft | 384 kts | 204° |
| 2026-05-06 02:39 | 41.42192 | -83.54128 | 18895 ft | 382 kts | 204° |
| 2026-05-06 02:39 | 41.39602 | -83.55003 | 18880 ft | 391 kts | 191° |
| 2026-05-06 02:39 | 41.36870 | -83.55006 | 18894 ft | 395 kts | 184° |
| 2026-05-06 02:39 | 41.34156 | -83.54656 | 18899 ft | 399 kts | 179° |
| 2026-05-06 02:40 | 41.31412 | -83.54066 | 18898 ft | 400 kts | 177° |
| 2026-05-06 02:40 | 41.28673 | -83.53435 | 18898 ft | 399 kts | 177° |
| 2026-05-06 02:40 | 41.25936 | -83.52851 | 18892 ft | 398 kts | 179° |
| 2026-05-06 02:40 | 41.23199 | -83.52336 | 18889 ft | 397 kts | 179° |
| 2026-05-06 02:41 | 41.20459 | -83.51825 | 18888 ft | 398 kts | 179° |
| 2026-05-06 02:41 | 41.17715 | -83.51311 | 18887 ft | 399 kts | 179° |
| 2026-05-06 02:41 | 41.14965 | -83.50794 | 18888 ft | 400 kts | 179° |
| 2026-05-06 02:41 | 41.12208 | -83.50273 | 18887 ft | 401 kts | 179° |
| 2026-05-06 02:42 | 41.09446 | -83.49753 | 18887 ft | 401 kts | 179° |
| 2026-05-06 02:42 | 41.06681 | -83.49230 | 18888 ft | 402 kts | 179° |
| 2026-05-06 02:42 | 41.03912 | -83.48710 | 18888 ft | 402 kts | 179° |
| 2026-05-06 02:42 | 41.01138 | -83.48190 | 18887 ft | 403 kts | 179° |
| 2026-05-06 02:43 | 40.98364 | -83.47673 | 18887 ft | 403 kts | 179° |
| 2026-05-06 02:43 | 40.95587 | -83.47153 | 18887 ft | 404 kts | 179° |
| 2026-05-06 02:43 | 40.92806 | -83.46629 | 18885 ft | 403 kts | 179° |
| 2026-05-06 02:43 | 40.90110 | -83.46117 | 18691 ft | 381 kts | 180° |
| 2026-05-06 02:44 | 40.87511 | -83.45631 | 18003 ft | 375 kts | 180° |
| 2026-05-06 02:44 | 40.84937 | -83.45152 | 17247 ft | 372 kts | 180° |
| 2026-05-06 02:44 | 40.82381 | -83.44676 | 16487 ft | 369 kts | 180° |
| 2026-05-06 02:44 | 40.79847 | -83.44205 | 15734 ft | 366 kts | 179° |
| 2026-05-06 02:45 | 40.77332 | -83.43734 | 14990 ft | 363 kts | 179° |
| 2026-05-06 02:45 | 40.74841 | -83.43271 | 14236 ft | 359 kts | 179° |
| 2026-05-06 02:45 | 40.72441 | -83.42819 | 13479 ft | 346 kts | 179° |
| 2026-05-06 02:45 | 40.70094 | -83.42382 | 12716 ft | 335 kts | 178° |
| 2026-05-06 02:46 | 40.67820 | -83.41956 | 11954 ft | 326 kts | 178° |
| 2026-05-06 02:46 | 40.65617 | -83.41544 | 11457 ft | 310 kts | 178° |
| 2026-05-06 02:46 | 40.63546 | -83.41158 | 11140 ft | 292 kts | 178° |
| 2026-05-06 02:46 | 40.61584 | -83.40792 | 10810 ft | 280 kts | 178° |
| 2026-05-06 02:47 | 40.59670 | -83.40431 | 10503 ft | 276 kts | 178° |
| 2026-05-06 02:47 | 40.57781 | -83.40081 | 10243 ft | 274 kts | 178° |
| 2026-05-06 02:47 | 40.55904 | -83.39726 | 10125 ft | 271 kts | 178° |
| 2026-05-06 02:47 | 40.54046 | -83.39098 | 10067 ft | 282 kts | 166° |
| 2026-05-06 02:48 | 40.52237 | -83.38062 | 10050 ft | 285 kts | 161° |
| 2026-05-06 02:48 | 40.50458 | -83.36897 | 10042 ft | 286 kts | 160° |
| 2026-05-06 02:48 | 40.48686 | -83.35699 | 10043 ft | 286 kts | 160° |
| 2026-05-06 02:48 | 40.46912 | -83.34524 | 10032 ft | 285 kts | 161° |
| 2026-05-06 02:49 | 40.45129 | -83.33385 | 10027 ft | 285 kts | 161° |
| 2026-05-06 02:49 | 40.43341 | -83.32264 | 10033 ft | 285 kts | 161° |
| 2026-05-06 02:49 | 40.41547 | -83.31157 | 10029 ft | 285 kts | 162° |
| 2026-05-06 02:49 | 40.39757 | -83.30032 | 10031 ft | 285 kts | 161° |
| 2026-05-06 02:50 | 40.37974 | -83.28894 | 10028 ft | 285 kts | 161° |
| 2026-05-06 02:50 | 40.36193 | -83.27760 | 10023 ft | 284 kts | 161° |
| 2026-05-06 02:50 | 40.34416 | -83.26622 | 10018 ft | 284 kts | 161° |
| 2026-05-06 02:50 | 40.32641 | -83.25486 | 10030 ft | 284 kts | 161° |
| 2026-05-06 02:51 | 40.30884 | -83.24278 | 10026 ft | 288 kts | 155° |
| 2026-05-06 02:51 | 40.29234 | -83.22751 | 10019 ft | 292 kts | 149° |
| 2026-05-06 02:51 | 40.27668 | -83.21077 | 9830 ft | 289 kts | 147° |
| 2026-05-06 02:51 | 40.26131 | -83.19410 | 9619 ft | 285 kts | 148° |
| 2026-05-06 02:52 | 40.24617 | -83.17756 | 9428 ft | 283 kts | 148° |
| 2026-05-06 02:52 | 40.23104 | -83.16123 | 9221 ft | 280 kts | 149° |
| 2026-05-06 02:52 | 40.21591 | -83.14537 | 9019 ft | 277 kts | 149° |
| 2026-05-06 02:52 | 40.20145 | -83.12918 | 8814 ft | 281 kts | 140° |
| 2026-05-06 02:53 | 40.18933 | -83.10882 | 8585 ft | 286 kts | 131° |
| 2026-05-06 02:53 | 40.17846 | -83.08652 | 8328 ft | 287 kts | 128° |
| 2026-05-06 02:53 | 40.16806 | -83.06452 | 8196 ft | 280 kts | 129° |
| 2026-05-06 02:53 | 40.15781 | -83.04309 | 7928 ft | 276 kts | 129° |
| 2026-05-06 02:54 | 40.14775 | -83.02245 | 7664 ft | 271 kts | 131° |
| 2026-05-06 02:54 | 40.13730 | -83.00226 | 7397 ft | 265 kts | 132° |
| 2026-05-06 02:54 | 40.12677 | -82.98264 | 7136 ft | 262 kts | 133° |
| 2026-05-06 02:54 | 40.11640 | -82.96328 | 6879 ft | 258 kts | 132° |
| 2026-05-06 02:55 | 40.10612 | -82.94422 | 6625 ft | 254 kts | 133° |
| 2026-05-06 02:55 | 40.09573 | -82.92573 | 6370 ft | 251 kts | 133° |
| 2026-05-06 02:55 | 40.08865 | -82.90474 | 6118 ft | 260 kts | 106° |
| 2026-05-06 02:55 | 40.08658 | -82.88131 | 5874 ft | 260 kts | 99° |
| 2026-05-06 02:56 | 40.08577 | -82.85786 | 5627 ft | 258 kts | 97° |
| 2026-05-06 02:56 | 40.08805 | -82.83460 | 5373 ft | 260 kts | 80° |
| 2026-05-06 02:56 | 40.09011 | -82.81157 | 5128 ft | 253 kts | 92° |
| 2026-05-06 02:56 | 40.09077 | -82.78884 | 4926 ft | 250 kts | 92° |
| 2026-05-06 02:57 | 40.09125 | -82.76622 | 4703 ft | 249 kts | 93° |
| 2026-05-06 02:57 | 40.09156 | -82.74379 | 4511 ft | 245 kts | 94° |
| 2026-05-06 02:57 | 40.09182 | -82.72153 | 4312 ft | 245 kts | 94° |
| 2026-05-06 02:57 | 40.09184 | -82.69927 | 4092 ft | 245 kts | 94° |
| 2026-05-06 02:58 | 40.09168 | -82.67706 | 3854 ft | 245 kts | 94° |
| 2026-05-06 02:58 | 40.09143 | -82.65503 | 3616 ft | 239 kts | 94° |
| 2026-05-06 02:58 | 40.09110 | -82.63366 | 3386 ft | 231 kts | 94° |
| 2026-05-06 02:58 | 40.08732 | -82.61422 | 3125 ft | 216 kts | 128° |
| 2026-05-06 02:59 | 40.07580 | -82.60368 | 3013 ft | 198 kts | 172° |
| 2026-05-06 02:59 | 40.06237 | -82.60439 | 3010 ft | 195 kts | 190° |
| 2026-05-06 02:59 | 40.04888 | -82.60657 | 3011 ft | 197 kts | 191° |
| 2026-05-06 02:59 | 40.03534 | -82.60914 | 3009 ft | 195 kts | 192° |
| 2026-05-06 03:00 | 40.02208 | -82.61176 | 3002 ft | 191 kts | 192° |
| 2026-05-06 03:00 | 40.00935 | -82.61562 | 2970 ft | 186 kts | 210° |
| 2026-05-06 03:00 | 40.00136 | -82.62790 | 2985 ft | 178 kts | 242° |
| 2026-05-06 03:00 | 39.99550 | -82.64210 | 2998 ft | 180 kts | 242° |
| 2026-05-06 03:01 | 39.98971 | -82.65687 | 3008 ft | 183 kts | 245° |
| 2026-05-06 03:01 | 39.98841 | -82.67301 | 2997 ft | 181 kts | 277° |
| 2026-05-06 03:01 | 39.99026 | -82.68918 | 2996 ft | 180 kts | 274° |
| 2026-05-06 03:01 | 39.99166 | -82.70536 | 2992 ft | 179 kts | 272° |
| 2026-05-06 03:02 | 39.99277 | -82.72076 | 3004 ft | 164 kts | 272° |
| 2026-05-06 03:02 | 39.99366 | -82.73510 | 3044 ft | 156 kts | 271° |
| 2026-05-06 03:02 | 39.99435 | -82.74912 | 2765 ft | 156 kts | 270° |
| 2026-05-06 03:02 | 39.99501 | -82.76296 | 2514 ft | 151 kts | 271° |
| 2026-05-06 03:03 | 39.99566 | -82.77655 | 2366 ft | 150 kts | 273° |
| 2026-05-06 03:03 | 39.99640 | -82.78996 | 2188 ft | 147 kts | 274° |
| 2026-05-06 03:03 | 39.99730 | -82.80338 | 1987 ft | 149 kts | 274° |
| 2026-05-06 03:03 | 39.99816 | -82.81659 | 1784 ft | 143 kts | 274° |
| 2026-05-06 03:04 | 39.99900 | -82.82943 | 1583 ft | 142 kts | 273° |
| 2026-05-06 03:04 | 39.99970 | -82.84219 | 1401 ft | 140 kts | 272° |
| 2026-05-06 03:04 | 40.00023 | -82.85491 | 1239 ft | 141 kts | 272° |
| 2026-05-06 03:04 | 40.00099 | -82.86779 | 1050 ft | 143 kts | 272° |
| 2026-05-06 03:05 | 40.00170 | -82.88079 | 845 ft | 145 kts | 273° |
| 2026-05-06 03:05 | 40.00233 | -82.89218 | 812 ft | 104 kts | 275° |
| 2026-05-06 03:05 | 40.00275 | -82.89967 | 822 ft | 58 kts | 275° |
| 2026-05-06 03:05 | 40.00293 | -82.90308 | 823 ft | 22 kts | 262° |
| 2026-05-06 03:06 | 40.00226 | -82.90392 | 822 ft | 11 kts | 154° |
| 2026-05-06 03:06 | 40.00199 | -82.90299 | 825 ft | 12 kts | 95° |
| 2026-05-06 03:06 | 40.00192 | -82.90195 | 823 ft | 0 kts | 94° |